A- A+ FrançaisEnglishEspañol中国

最近的 LFBT Tarbes-Lourdes-PyrénéesLFPB Paris-Le-Bourget LFSB Basle-Mulhouse LFBC Cazaux

manche à air

飞行员的航空天气,使用METAR(气象机场报告)进行的飞行准备和TAF(终端机场预报:针对以下情况的短期天气预报)航空)。 以及其他资源,例如VAC(目视进近图)和NOTAM(通知飞行员)以进行预试飞行.

Hawarden机场 (联合王国) / OACI EGNR/ IATA CEG

Hawarden机场的高度为14 m=46 ft. 它位于附近 Hawarden (联合王国). 可提供5天天气预报 Blacon 位于 4.8 km.

METAR Hawarden机场的 - EGNR

EGNR 022050Z 22012KT 9999 FEW025 SCT039 12/08 Q1009

Hawarden机场METAR解码 (GB)

EGNR机场发行的METAR日期jeudi 2 janvier 2020至20:50 GMT. 警告:此METAR已过期,已于148分钟前发布.

可见度为大于 10 km=大于6.2 sm.

温度为12°C=54 °F 露点为8°C=46 °F 。 这相当于77%的相对湿度。.

QNH是1009 hPa=29.8 inHg

的风12 kt=22 km/h, 风向为220°.

云:处少云2500 ft=760云. 距离3900 ft=1190云.

TAF Hawarden机场的 - EGNR

EGNR 021701Z 0218/0221 19008KT 9999 SCT030 PROB30 TEMPO 0218/0221 21017G27KT 6000 RA BKN012

EGNR 021701Z 0218/0221 19008KT 9999 距离030 拥有30%的可能性 暂时 0218/0221 21017G27KT 6000 雨 距云012

附近的机场Hawarden

Blacon的一般天气5天预报 (4.8 km)EGGP Liverpool机场 (19 km)EGCT Tilstock机场 (35 km)EGCV Sleap机场 (41 km)EGOW Woodvale机场 (45 km)EGOE Ternhill机场 (45 km)EGOS Shawbury机场 (47 km)

的鸟瞰图

Hawarden机场的NOTAM

提供的NOTAM不能保证其时事性。 在将其用于飞行准备或在飞行期间使用之前,飞行员是唯一负责验证其有效性的人员。

没有通知

数据源